Decoded Metar for KMHE (MITCHELL in SD, USA) (IATA:MHE) | Meteo·Mobile Aviation Weather
aviador You're here:

KMHE Decoded Metar

MITCHELL in SD, USA
Report Time2018-12-15 15:53:00
UTC Time2018-12-15 16:17:43
Flight Rules vfr VFR
Wind160° at 13 kt
W.Decomp.*RWY 17: 12.4 kt HW 3.8 kt LCW
RWY 12: 10.9 kt HW 7.1 kt RCW
W.Rank160° ranks 1
Current wind is above 160° avg. (11.0)
Visibility9999 m
Phenomena:N/A
Clouds:N/A
Expected CloudBase > 2,000 ft AGL from Temp-Dew spread
CeilingNone
Temp-1°C (ISA -13)
Dew Point-6°C (69% RH)
AAT-8.4°C
QNH1016 hPa
Density Alt-381 ft
Elevation1,302 ft
Report Wrong Elevation
Raw Report
KMHE 151553Z AUTO 16013KT 10SM CLR M01/M06 A2999 RMK AO2 SLP173
T10061056=

Extra information for KMHE:More info

Metar Taf Metar & Taf Last 4 Metars F.Rules Stats Wind Profile Meteogram Temp Stats Airport Information Weather charts Add Link Nearby VenuesMetar ALERT Operation Metar Decoded Social comments

AIRNAV info for KMHE